Strona główna
METAR-TAF:

METAR-TAF

Lotnisko :

Port lotniczy Funafuti

Funafuti, Tuvalu

Szerokość geograficzna: 08-31S, Długość geograficzna: 179-13E, wysokość: 1 m

Aktualna obserwacja pogody

Raport powstał 1 godzina i 6 minut temu, godzina 19:00 UTC
Wiatr 2 kt z kierunków zmiennych
Temperatura 30°C
Wilgotność 70%
Ciśnienie 1009 hPa
Widzialność 10 km lub więcej
Mało chmury na wysokości 2000 ft

METAR: NGFU 141900Z VRB02KT 9999 FEW020 30/24 Q1009

czas: 08:06 (20:06 UTC)

Prognoza

Raport powstał 2 godziny i 48 minut temu, godzina 17:18 UTC
Prognoza ważna od 14 godzina 18 UTC do 15 godzina 18 UTC
Wiatr 8 kt od północno-północny wschód
Widzialność 10 km lub więcej
Rozproszone chmury na wysokości 1700 ft
Rozproszone chmury na wysokości 5000 ft
Prawdopodobieństwo 30% :
Przejściowo
od 15 godzina 03 UTC do 15 godzina 12 UTC
Widzialność: 5000 m
Mało chmury na wysokości 1800 ft, Cumulonimbus.
burza, deszcz

TAF: NGFU 141718Z 1418/1518 03008KT 9999 SCT017 SCT050 PROB30 TEMPO 1503/1512 5000 TSRA FEW018CB

Obserwacja i prognoza pogody dla ponad 4000 lotnisk (raport METAR i TAF).

Dostępne stacje oznaczono żółtymi i czerwonymi punktami na mapie.

Najedź kursorem aby zobaczyć nazwę stacji.

Kliknij aby zobaczyć obserwacje i prognozy pogody.

Aby zmienić mapę: kliknij na zielony przycisk z czarnym krzyżykiem, aby powiększyć; na zielony przycisk z myślnikiem, aby pomniejszyć; na zielone strzałki, aby przejść do map sąsiednich.


METAR-TAF: